HEGN

Hurghada International Airport

Hurghada, Egypt
METAR HEGN 200500Z 33009KT CAVOK 30/11 Q1011 NOSIG
Observed Flight Rules
Jun-20 @ 05:00 UTC (44 minutes ago) Visual Flight Rules
Wind Visibility Clouds
330° at 9 knots 10,000+ meters
  • Clear skies
Temperatures Readings
Current 30°C / 86°F
Dewpoint 11°C / 52°F
Humidity 31%
Altimeter 29.85" Hg
Pressure 1011 hPa
Elevation 14
METAR HEGN 200500Z 33009KT CAVOK 30/11 Q1011 NOSIG
Observed Flight Rules
Jun-20 @ 05:00 UTC
(44 minutes ago)
VFR
Wind Visibility
330° at 9 knots 10,000+ meters
Clouds
  • Clear skies
Temperature Dewpoint
30°C / 86°F 11°C / 52°F
Humidity Altimeter Pressure
31% 29.85" Hg 1011 hPa